Time;durP1;ratioP1;P1;durP2;ratioP2;P2;SDS_P1;SDS_P2;PMS_P1;PMS_P2;Temp;Humidity;BMP_temperature;BMP_pressure;BME280_temperature;BME280_humidity;BME280_pressure;Samples;Min_cycle;Max_cycle;Signal;HPM_P1;HPM_P2
2021/09/03 00:02:00;;;;;;;5.60;5.10;;;18.20;99.90;;;;;;5007679;28;20469;-77
2021/09/03 00:04:28;;;;;;;6.87;5.10;;;18.10;99.90;;;;;;5007135;28;20462;-78
2021/09/03 00:06:57;;;;;;;5.40;4.30;;;18.10;99.90;;;;;;5005587;28;20474;-77
2021/09/03 00:09:25;;;;;;;4.10;3.50;;;18.10;99.90;;;;;;5002076;28;20489;-75
2021/09/03 00:11:53;;;;;;;6.70;5.27;;;18.10;99.90;;;;;;5006409;28;20573;-78
2021/09/03 00:14:22;;;;;;;8.20;5.10;;;18.10;99.90;;;;;;5007434;28;20484;-77
2021/09/03 00:16:50;;;;;;;4.57;4.17;;;18.00;99.90;;;;;;5006148;28;20886;-75
2021/09/03 00:19:19;;;;;;;5.10;4.60;;;18.00;99.90;;;;;;5005283;28;20716;-77
2021/09/03 00:21:47;;;;;;;7.13;5.27;;;18.00;99.90;;;;;;5005151;28;20937;-76
2021/09/03 00:24:15;;;;;;;5.60;4.57;;;18.00;99.90;;;;;;5007847;28;20432;-75
2021/09/03 00:26:43;;;;;;;6.50;3.77;;;17.90;99.90;;;;;;5001788;28;20519;-77
2021/09/03 00:29:12;;;;;;;4.67;4.10;;;17.90;99.90;;;;;;5007473;28;20448;-76
2021/09/03 00:31:41;;;;;;;4.60;4.20;;;17.90;99.90;;;;;;5004795;28;20476;-77
2021/09/03 00:34:09;;;;;;;4.37;3.90;;;17.80;99.90;;;;;;5008891;28;20464;-78
2021/09/03 00:36:37;;;;;;;5.93;4.33;;;17.80;99.90;;;;;;5008441;28;20465;-78
2021/09/03 00:39:05;;;;;;;6.20;5.10;;;17.80;99.90;;;;;;5006097;28;20452;-77
2021/09/03 00:41:33;;;;;;;4.30;3.90;;;17.80;99.90;;;;;;5005578;28;21008;-79
2021/09/03 00:44:02;;;;;;;4.70;3.70;;;17.80;99.90;;;;;;5008091;28;20441;-78
2021/09/03 00:46:30;;;;;;;4.30;3.77;;;17.80;99.90;;;;;;5005323;28;20459;-78
2021/09/03 00:48:59;;;;;;;7.80;4.57;;;17.70;99.90;;;;;;5007252;28;20991;-78
2021/09/03 00:51:28;;;;;;;4.90;3.77;;;17.70;99.90;;;;;;5006741;28;20508;-77
2021/09/03 00:53:56;;;;;;;4.53;4.13;;;17.70;99.90;;;;;;5008232;28;20469;-78
2021/09/03 00:56:24;;;;;;;4.90;3.70;;;17.70;99.90;;;;;;5007592;28;20460;-78
2021/09/03 00:58:52;;;;;;;4.70;3.67;;;17.60;99.90;;;;;;5006240;28;20491;-78
2021/09/03 01:01:20;;;;;;;5.70;4.73;;;17.60;99.90;;;;;;5006682;28;20515;-79
2021/09/03 01:03:49;;;;;;;4.40;3.80;;;17.60;99.90;;;;;;5005918;28;20457;-76
2021/09/03 01:06:20;;;;;;;5.80;5.00;;;17.60;99.90;;;;;;5008903;28;20467;-77
2021/09/03 01:08:48;;;;;;;4.20;3.33;;;17.60;99.90;;;;;;5006156;28;21022;-74
2021/09/03 01:11:16;;;;;;;5.27;3.97;;;17.50;99.90;;;;;;5007243;28;20522;-78
2021/09/03 01:13:44;;;;;;;4.57;4.17;;;17.40;99.90;;;;;;5005745;28;20522;-78
2021/09/03 01:16:12;;;;;;;4.00;3.60;;;17.30;99.90;;;;;;5003602;28;20844;-76
2021/09/03 01:18:40;;;;;;;6.33;4.67;;;17.30;99.90;;;;;;5005657;28;20459;-77
2021/09/03 01:21:08;;;;;;;4.37;3.93;;;17.30;99.90;;;;;;5010512;28;21037;-76
2021/09/03 01:23:38;;;;;;;7.57;3.93;;;17.40;99.90;;;;;;4996455;28;20803;-79
2021/09/03 01:26:07;;;;;;;6.80;4.83;;;17.40;99.90;;;;;;5001995;28;21046;-78
2021/09/03 01:28:35;;;;;;;4.00;3.53;;;17.40;99.90;;;;;;5008354;28;21379;-79
2021/09/03 01:31:03;;;;;;;4.93;4.37;;;17.40;99.90;;;;;;5006934;28;20501;-78
2021/09/03 01:33:32;;;;;;;5.23;3.60;;;17.40;99.90;;;;;;5010413;28;20460;-78
2021/09/03 01:36:00;;;;;;;7.93;4.33;;;17.40;99.90;;;;;;5010390;28;20488;-77
2021/09/03 01:38:28;;;;;;;3.97;3.63;;;17.30;99.90;;;;;;5010234;28;21075;-77
2021/09/03 01:41:00;;;;;;;7.03;4.20;;;17.30;99.90;;;;;;5003086;28;20489;-77
2021/09/03 01:43:28;;;;;;;5.80;4.10;;;17.10;99.90;;;;;;5010451;28;20535;-77
2021/09/03 01:45:56;;;;;;;5.93;4.30;;;17.20;99.90;;;;;;5010992;28;20490;-77
2021/09/03 01:48:24;;;;;;;4.20;3.50;;;17.20;99.90;;;;;;5009066;28;20469;-78
2021/09/03 01:50:52;;;;;;;6.30;3.87;;;17.20;99.90;;;;;;5005024;28;20488;-78
2021/09/03 01:53:20;;;;;;;4.87;4.40;;;17.20;99.90;;;;;;5009762;28;20972;-79
2021/09/03 01:55:48;;;;;;;5.57;4.40;;;17.20;99.90;;;;;;5009672;28;20495;-79
2021/09/03 01:58:18;;;;;;;4.37;3.70;;;17.20;99.90;;;;;;5010732;28;20501;-78
2021/09/03 02:00:46;;;;;;;4.80;3.80;;;17.10;99.90;;;;;;5004334;28;20491;-77
2021/09/03 02:03:14;;;;;;;4.43;3.13;;;17.00;99.90;;;;;;5010983;28;20455;-80
2021/09/03 02:05:43;;;;;;;5.23;3.80;;;17.00;99.90;;;;;;5009242;28;20867;-78
2021/09/03 02:08:11;;;;;;;5.63;4.60;;;17.00;99.90;;;;;;5010654;28;20491;-77
2021/09/03 02:10:39;;;;;;;4.67;3.47;;;17.00;99.90;;;;;;5007549;28;20480;-79
2021/09/03 02:13:08;;;;;;;6.73;3.97;;;17.00;99.90;;;;;;5009391;28;20508;-76
2021/09/03 02:15:37;;;;;;;4.00;3.70;;;17.00;99.90;;;;;;5009594;28;20507;-77
2021/09/03 02:18:05;;;;;;;4.10;3.70;;;17.00;99.90;;;;;;5010872;28;20973;-75
2021/09/03 02:20:33;;;;;;;4.20;3.80;;;17.00;99.90;;;;;;5005650;28;20476;-77
2021/09/03 02:23:01;;;;;;;4.57;4.20;;;17.00;99.90;;;;;;5010940;28;20448;-77
2021/09/03 02:25:30;;;;;;;4.00;3.37;;;16.90;99.90;;;;;;5008788;28;20466;-78
2021/09/03 02:27:58;;;;;;;6.40;4.57;;;16.90;99.90;;;;;;5009956;28;20475;-78
2021/09/03 02:30:26;;;;;;;4.77;3.60;;;16.90;99.90;;;;;;5008024;28;21129;-79
2021/09/03 02:32:55;;;;;;;4.50;3.10;;;16.90;99.90;;;;;;5010672;28;20461;-79
2021/09/03 02:35:23;;;;;;;5.50;3.80;;;16.90;99.90;;;;;;5007241;28;20532;-78
2021/09/03 02:37:51;;;;;;;5.97;3.77;;;17.00;99.90;;;;;;5010259;28;20552;-78
2021/09/03 02:40:20;;;;;;;3.37;3.07;;;16.90;99.90;;;;;;5005492;28;20486;-76
2021/09/03 02:42:48;;;;;;;3.70;3.40;;;16.90;99.90;;;;;;5010139;28;20481;-78
2021/09/03 02:45:16;;;;;;;5.60;4.00;;;16.90;99.90;;;;;;5007706;28;20440;-76
2021/09/03 02:47:44;;;;;;;5.90;3.70;;;16.90;99.90;;;;;;5009264;28;21094;-76
2021/09/03 02:50:14;;;;;;;3.70;3.27;;;16.80;99.90;;;;;;5007755;28;21186;-76
2021/09/03 02:52:42;;;;;;;5.13;3.30;;;16.80;99.90;;;;;;5010408;28;20441;-77
2021/09/03 02:55:10;;;;;;;4.50;4.10;;;16.80;99.90;;;;;;5007813;28;20478;-77
2021/09/03 02:57:39;;;;;;;3.80;3.33;;;16.80;99.90;;;;;;5010190;28;20452;-79
2021/09/03 03:00:09;;;;;;;6.30;4.27;;;16.70;99.90;;;;;;5005328;28;20462;-75
2021/09/03 03:02:39;;;;;;;4.27;3.27;;;16.70;99.90;;;;;;5004200;28;20982;-78
2021/09/03 03:05:08;;;;;;;4.80;3.93;;;16.60;99.90;;;;;;5007084;28;21099;-77
2021/09/03 03:07:38;;;;;;;5.07;4.30;;;16.50;99.90;;;;;;5010000;28;20451;-78
2021/09/03 03:10:07;;;;;;;4.37;3.23;;;16.50;99.90;;;;;;5007336;28;20501;-77
2021/09/03 03:12:35;;;;;;;3.50;2.83;;;16.50;99.90;;;;;;5009705;28;20448;-76
2021/09/03 03:15:04;;;;;;;3.53;3.20;;;16.60;99.90;;;;;;4997884;28;20470;-77
2021/09/03 03:17:33;;;;;;;5.97;3.90;;;16.50;99.90;;;;;;5008799;28;20536;-77
2021/09/03 03:20:01;;;;;;;3.63;3.30;;;16.50;99.90;;;;;;5007782;28;20469;-77
2021/09/03 03:22:30;;;;;;;4.00;3.60;;;16.60;99.90;;;;;;5009796;28;20484;-77
2021/09/03 03:24:59;;;;;;;4.80;3.73;;;16.50;99.90;;;;;;5006997;28;20488;-77
2021/09/03 03:27:28;;;;;;;6.60;4.10;;;16.50;99.90;;;;;;5008854;28;20458;-77
2021/09/03 03:30:16;;;;;;;4.43;3.53;;;16.50;99.90;;;;;;5005436;28;20474;-76
2021/09/03 03:32:44;;;;;;;4.97;3.83;;;16.50;99.90;;;;;;5004711;28;20465;-77
2021/09/03 03:35:12;;;;;;;5.33;3.30;;;16.50;99.90;;;;;;5008458;28;20522;-77
2021/09/03 03:37:40;;;;;;;5.00;4.00;;;16.40;99.90;;;;;;5009440;28;20517;-77
2021/09/03 03:40:11;;;;;;;3.90;3.23;;;16.40;99.90;;;;;;5003464;28;20945;-76
2021/09/03 03:42:39;;;;;;;5.60;3.43;;;16.40;99.90;;;;;;5008445;28;20496;-79
2021/09/03 03:45:08;;;;;;;3.23;2.93;;;16.40;99.90;;;;;;5007924;28;20498;-80
2021/09/03 03:47:37;;;;;;;3.47;3.17;;;16.40;99.90;;;;;;4989116;28;20471;-78
2021/09/03 03:50:07;;;;;;;4.10;3.70;;;16.30;99.90;;;;;;5006082;28;20489;-77
2021/09/03 03:52:35;;;;;;;3.77;3.40;;;16.30;99.90;;;;;;5008320;28;20460;-77
2021/09/03 03:55:04;;;;;;;5.60;3.50;;;16.20;99.90;;;;;;5007746;28;20454;-78
2021/09/03 03:57:34;;;;;;;4.93;3.80;;;16.20;99.90;;;;;;5008731;28;20457;-78
2021/09/03 04:00:03;;;;;;;5.30;4.17;;;16.20;99.90;;;;;;5006003;28;20519;-77
2021/09/03 04:02:31;;;;;;;3.83;3.53;;;16.30;99.90;;;;;;5006938;28;20536;-77
2021/09/03 04:04:59;;;;;;;3.30;2.90;;;16.20;99.90;;;;;;4999152;28;20477;-77
2021/09/03 04:07:28;;;;;;;6.37;4.30;;;16.10;99.90;;;;;;5006766;28;20562;-78
2021/09/03 04:09:56;;;;;;;3.40;3.10;;;16.00;99.90;;;;;;5007442;28;20470;-77
2021/09/03 04:12:24;;;;;;;4.47;4.03;;;16.10;99.90;;;;;;5008833;28;20532;-78
2021/09/03 04:14:54;;;;;;;4.63;3.47;;;16.10;99.90;;;;;;5008094;28;20503;-77
2021/09/03 04:17:22;;;;;;;4.13;3.03;;;16.10;99.90;;;;;;5007669;28;21137;-78
2021/09/03 04:19:50;;;;;;;4.73;3.63;;;16.10;99.90;;;;;;5005677;28;21162;-78
2021/09/03 04:22:18;;;;;;;5.70;3.80;;;16.10;99.90;;;;;;5006869;28;20486;-77
2021/09/03 04:24:46;;;;;;;4.70;4.27;;;16.00;99.90;;;;;;5006649;28;20457;-77
2021/09/03 04:27:14;;;;;;;4.70;4.07;;;16.00;99.90;;;;;;5006425;28;21088;-78
2021/09/03 04:29:42;;;;;;;9.80;5.80;;;16.10;99.90;;;;;;5007048;28;20884;-78
2021/09/03 04:32:12;;;;;;;4.20;3.80;;;16.00;99.90;;;;;;5006987;28;21177;-78
2021/09/03 04:34:40;;;;;;;4.70;4.30;;;16.00;99.90;;;;;;5008295;28;20453;-76
2021/09/03 04:37:08;;;;;;;5.37;4.87;;;16.00;99.90;;;;;;5006866;28;20488;-77
2021/09/03 04:39:36;;;;;;;4.73;4.20;;;15.90;99.90;;;;;;5003002;28;20469;-76
2021/09/03 04:42:04;;;;;;;4.77;3.70;;;15.90;99.90;;;;;;4997662;28;20567;-79
2021/09/03 04:44:33;;;;;;;4.57;3.37;;;15.90;99.90;;;;;;5007957;28;20465;-77
2021/09/03 04:47:01;;;;;;;4.00;3.67;;;15.90;99.90;;;;;;5003477;28;20934;-78
2021/09/03 04:49:30;;;;;;;4.30;3.90;;;15.90;99.90;;;;;;5007076;28;21324;-78
2021/09/03 04:51:58;;;;;;;3.73;3.43;;;15.90;99.90;;;;;;5007082;28;20482;-77
2021/09/03 04:54:27;;;;;;;4.93;3.43;;;15.90;99.90;;;;;;5007580;28;20960;-79
2021/09/03 04:56:55;;;;;;;4.10;3.80;;;16.00;99.90;;;;;;5011650;28;20468;-78
2021/09/03 04:59:23;;;;;;;7.07;3.97;;;16.00;99.90;;;;;;5007029;28;20457;-79
2021/09/03 05:01:51;;;;;;;4.60;3.73;;;16.00;99.90;;;;;;5010328;28;20562;-78
2021/09/03 05:04:19;;;;;;;4.90;3.97;;;16.00;99.90;;;;;;5010647;28;20461;-79
2021/09/03 05:06:49;;;;;;;5.97;4.40;;;16.00;99.90;;;;;;4999616;28;20531;-79
2021/09/03 05:09:17;;;;;;;6.07;5.00;;;16.00;99.90;;;;;;4998969;28;20555;-77
2021/09/03 05:11:45;;;;;;;5.97;4.60;;;16.00;99.90;;;;;;5003577;28;20476;-77
2021/09/03 05:14:13;;;;;;;5.47;4.00;;;15.90;99.90;;;;;;5011011;28;20461;-78
2021/09/03 05:16:41;;;;;;;4.37;3.63;;;15.90;99.90;;;;;;5008072;28;20928;-76
2021/09/03 05:19:09;;;;;;;6.33;4.53;;;15.90;99.90;;;;;;5011396;28;20458;-78
2021/09/03 05:21:38;;;;;;;4.50;4.17;;;15.90;99.90;;;;;;5010019;28;20509;-79
2021/09/03 05:24:07;;;;;;;5.63;4.33;;;15.90;99.90;;;;;;5012014;28;20459;-77
2021/09/03 05:26:35;;;;;;;4.43;4.00;;;15.90;99.90;;;;;;5011203;28;20448;-76
2021/09/03 05:29:04;;;;;;;8.27;4.80;;;15.90;99.90;;;;;;5010064;28;20539;-78
2021/09/03 05:31:32;;;;;;;4.27;3.77;;;15.80;99.90;;;;;;5011573;28;20476;-78
2021/09/03 05:34:01;;;;;;;7.20;4.73;;;15.90;99.90;;;;;;5006791;28;20461;-79
2021/09/03 05:36:29;;;;;;;6.53;5.10;;;15.90;99.90;;;;;;5012068;28;20469;-76
2021/09/03 05:38:57;;;;;;;6.70;4.40;;;15.90;99.90;;;;;;5008799;28;20461;-76
2021/09/03 05:41:26;;;;;;;5.13;4.63;;;15.60;99.90;;;;;;5003755;28;20485;-72
2021/09/03 05:43:55;;;;;;;7.27;4.70;;;15.40;1.00;;;;;;5004077;28;20467;-74
2021/09/03 05:46:23;;;;;;;6.00;4.93;;;15.40;1.00;;;;;;5008397;28;20461;-80
2021/09/03 05:48:51;;;;;;;5.70;5.03;;;15.40;1.00;;;;;;5006588;28;20566;-77
2021/09/03 05:51:20;;;;;;;5.10;4.60;;;15.40;1.00;;;;;;5007421;28;20492;-79
2021/09/03 05:53:48;;;;;;;6.07;4.80;;;15.30;1.00;;;;;;5010938;28;20491;-79
2021/09/03 05:56:16;;;;;;;3.90;3.60;;;15.30;1.00;;;;;;5008881;28;20863;-78
2021/09/03 05:58:45;;;;;;;5.50;5.00;;;15.40;1.00;;;;;;5006053;28;20544;-79
2021/09/03 06:01:13;;;;;;;6.07;5.40;;;15.40;62.60;;;;;;5007463;28;20539;-79
2021/09/03 06:03:42;;;;;;;7.80;5.37;;;15.40;44.20;;;;;;5005834;28;20515;-78
2021/09/03 06:06:10;;;;;;;5.63;5.03;;;15.40;67.90;;;;;;4998428;28;20516;-77
2021/09/03 06:08:38;;;;;;;5.30;4.80;;;15.50;94.60;;;;;;5006281;28;20479;-75
2021/09/03 06:11:06;;;;;;;10.60;5.80;;;15.50;99.90;;;;;;5007250;28;20481;-77
2021/09/03 06:13:35;;;;;;;4.63;4.23;;;15.50;99.90;;;;;;5008033;28;20961;-76
2021/09/03 06:16:05;;;;;;;8.17;5.20;;;15.70;99.90;;;;;;5010948;28;20879;-78
2021/09/03 06:18:34;;;;;;;7.70;5.90;;;15.80;91.40;;;;;;5009213;28;20482;-76
2021/09/03 06:21:02;;;;;;;5.87;4.57;;;15.90;66.40;;;;;;4996107;28;21052;-79
2021/09/03 06:23:30;;;;;;;7.60;5.73;;;15.90;99.90;;;;;;5010138;28;20980;-78
2021/09/03 06:25:58;;;;;;;5.73;5.10;;;16.10;32.70;;;;;;5011458;28;20459;-78
2021/09/03 06:28:26;;;;;;;6.00;5.13;;;16.20;10.90;;;;;;5010266;28;20431;-78
2021/09/03 06:30:54;;;;;;;7.17;6.20;;;16.40;1.00;;;;;;5009952;28;20531;-78
2021/09/03 06:33:24;;;;;;;8.90;5.00;;;16.60;1.00;;;;;;5009334;28;21025;-77
2021/09/03 06:35:53;;;;;;;5.40;4.90;;;16.70;1.00;;;;;;5011162;28;20497;-77
2021/09/03 06:38:21;;;;;;;6.50;4.40;;;16.80;1.00;;;;;;5010265;28;20487;-76
2021/09/03 06:40:49;;;;;;;7.30;5.53;;;16.90;1.00;;;;;;5010283;28;20488;-77
2021/09/03 06:43:17;;;;;;;5.90;5.30;;;17.10;1.00;;;;;;5009497;28;20530;-78
2021/09/03 06:45:45;;;;;;;5.43;4.57;;;17.20;1.00;;;;;;5011252;28;21037;-76
2021/09/03 06:48:13;;;;;;;5.47;4.97;;;17.30;1.00;;;;;;5009765;28;20444;-78
2021/09/03 06:50:43;;;;;;;6.90;5.77;;;17.30;1.00;;;;;;5009797;28;20479;-74
2021/09/03 06:53:11;;;;;;;7.70;6.00;;;17.40;1.00;;;;;;5009662;28;20502;-78
2021/09/03 06:55:39;;;;;;;7.50;6.07;;;17.40;1.00;;;;;;5010392;28;20502;-78
2021/09/03 06:58:07;;;;;;;6.93;5.90;;;17.50;1.00;;;;;;5000065;28;20491;-76
2021/09/03 07:00:35;;;;;;;11.17;6.33;;;17.50;1.00;;;;;;5008457;28;20496;-78
2021/09/03 07:03:03;;;;;;;6.53;5.40;;;17.50;1.00;;;;;;5009184;28;20539;-77
2021/09/03 07:05:32;;;;;;;7.20;5.40;;;17.60;1.00;;;;;;5003820;28;20559;-77
2021/09/03 07:08:01;;;;;;;7.57;5.13;;;17.70;1.00;;;;;;5005075;28;20515;-77
2021/09/03 07:10:29;;;;;;;7.30;5.50;;;17.80;1.00;;;;;;5008750;28;20483;-77
2021/09/03 07:12:57;;;;;;;6.23;5.33;;;17.80;1.00;;;;;;5006837;28;20458;-80
2021/09/03 07:15:26;;;;;;;7.97;5.20;;;17.80;1.00;;;;;;5007818;28;20460;-77
2021/09/03 07:17:55;;;;;;;7.03;5.57;;;17.70;1.00;;;;;;5005497;28;20480;-76
2021/09/03 07:20:23;;;;;;;7.00;5.87;;;17.80;1.00;;;;;;4999824;28;20871;-77
2021/09/03 07:22:51;;;;;;;7.30;5.13;;;17.70;1.00;;;;;;5007646;28;20811;-74
2021/09/03 07:25:21;;;;;;;6.10;4.90;;;17.90;1.00;;;;;;5008730;28;20445;-75
2021/09/03 07:27:49;;;;;;;6.50;5.00;;;18.00;1.00;;;;;;5002562;28;20452;-78
2021/09/03 07:30:17;;;;;;;6.93;5.63;;;18.00;1.00;;;;;;5006198;28;20463;-77
2021/09/03 07:32:47;;;;;;;5.70;5.10;;;18.10;1.00;;;;;;5004885;28;20461;-75
2021/09/03 07:35:18;;;;;;;8.60;6.13;;;18.10;1.00;;;;;;5000953;28;21000;-78
2021/09/03 07:37:46;;;;;;;7.77;6.30;;;18.20;1.00;;;;;;5010965;28;20229;-78
2021/09/03 07:40:16;;;;;;;7.07;6.20;;;18.30;1.00;;;;;;5010366;28;20450;-78
2021/09/03 07:42:46;;;;;;;6.87;5.60;;;18.50;1.00;;;;;;5004560;28;20666;-77
2021/09/03 07:45:14;;;;;;;6.27;5.67;;;18.60;1.00;;;;;;5007812;28;21211;-77
2021/09/03 07:47:43;;;;;;;5.73;5.00;;;18.90;99.90;;;;;;5005826;28;20443;-76
2021/09/03 07:50:17;;;;;;;4.50;4.10;;;19.10;99.90;;;;;;5006314;28;20543;-77
2021/09/03 07:52:45;;;;;;;5.90;4.50;;;19.40;99.90;;;;;;4999873;28;20466;-78
2021/09/03 07:55:34;;;;;;;6.70;5.17;;;19.60;99.90;;;;;;5000347;28;20461;-77
2021/09/03 07:58:05;;;;;;;5.30;4.80;;;19.80;99.90;;;;;;5007899;28;20885;-77
2021/09/03 08:00:35;;;;;;;5.87;4.70;;;19.90;99.90;;;;;;5006404;28;20914;-75
2021/09/03 08:03:04;;;;;;;4.90;4.37;;;20.00;99.90;;;;;;5006378;28;20453;-76
2021/09/03 08:05:32;;;;;;;5.90;4.37;;;20.00;99.90;;;;;;5006365;28;20450;-77
2021/09/03 08:08:03;;;;;;;7.23;5.40;;;20.00;99.90;;;;;;5001851;28;20446;-78
2021/09/03 08:10:33;;;;;;;6.10;5.37;;;20.00;99.90;;;;;;5004832;28;20530;-77
2021/09/03 08:13:01;;;;;;;6.20;5.00;;;20.10;99.90;;;;;;5008313;28;20521;-76
2021/09/03 08:15:32;;;;;;;5.45;4.70;;;20.10;99.90;;;;;;5003782;28;20804;-79
2021/09/03 08:18:01;;;;;;;5.43;4.93;;;20.10;99.90;;;;;;5005184;28;20242;-77
2021/09/03 08:20:29;;;;;;;6.90;5.40;;;20.20;99.90;;;;;;4995839;28;20558;-77
2021/09/03 08:22:57;;;;;;;5.50;4.47;;;20.30;99.90;;;;;;5006255;28;20491;-77
2021/09/03 08:25:25;;;;;;;8.13;5.37;;;20.30;99.90;;;;;;5005726;28;20527;-74
2021/09/03 08:27:53;;;;;;;7.70;5.73;;;20.30;99.90;;;;;;5006523;28;20482;-75
2021/09/03 08:30:22;;;;;;;5.67;4.70;;;20.30;99.90;;;;;;5003969;28;20465;-75
2021/09/03 08:32:51;;;;;;;7.87;4.90;;;20.30;99.90;;;;;;5007781;28;20468;-79
2021/09/03 08:35:19;;;;;;;6.60;4.77;;;20.40;99.90;;;;;;5005042;28;20507;-76
2021/09/03 08:37:52;;;;;;;6.23;4.23;;;20.40;99.90;;;;;;5005469;28;20473;-77
2021/09/03 08:40:20;;;;;;;4.60;4.03;;;20.50;99.90;;;;;;5004472;28;20977;-76
2021/09/03 08:42:49;;;;;;;5.13;4.57;;;20.50;99.90;;;;;;5005927;28;20437;-77
2021/09/03 08:45:17;;;;;;;7.17;5.30;;;20.50;99.90;;;;;;4995674;28;20513;-77
2021/09/03 08:47:46;;;;;;;4.67;4.23;;;20.60;99.90;;;;;;5008769;28;20861;-77
2021/09/03 08:50:17;;;;;;;4.47;4.07;;;20.60;99.90;;;;;;5005046;28;20461;-76
2021/09/03 08:52:47;;;;;;;4.93;3.40;;;20.70;99.90;;;;;;5006682;28;20466;-78
2021/09/03 08:55:17;;;;;;;7.00;4.50;;;20.60;99.90;;;;;;5006975;28;20461;-75
2021/09/03 08:57:46;;;;;;;4.57;3.77;;;20.60;99.90;;;;;;5005992;28;20470;-75
2021/09/03 09:00:21;;;;;;;5.23;4.33;;;20.70;99.90;;;;;;5005301;28;20457;-75
2021/09/03 09:03:06;;;;;;;5.50;4.03;;;20.80;99.90;;;;;;5006765;28;20544;-76
2021/09/03 09:05:51;;;;;;;6.32;4.40;;;20.80;99.90;;;;;;5003148;28;20464;-77
2021/09/03 09:08:20;;;;;;;6.00;4.60;;;20.80;99.90;;;;;;5004321;28;20212;-77
2021/09/03 09:10:51;;;;;;;5.60;4.40;;;20.90;99.90;;;;;;4999923;28;20491;-77
2021/09/03 09:13:21;;;;;;;6.93;5.40;;;20.80;99.90;;;;;;5006954;28;20453;-76
2021/09/03 09:16:00;;;;;;;5.13;4.63;;;20.70;99.90;;;;;;5003015;28;20458;-76
2021/09/03 09:18:37;;;;;;;4.47;4.00;;;20.70;99.90;;;;;;5004699;28;20489;-76
2021/09/03 09:21:15;;;;;;;5.23;4.03;;;20.80;99.90;;;;;;5003057;28;20661;-77
2021/09/03 09:23:46;;;;;;;5.70;5.10;;;20.90;99.90;;;;;;4996013;28;20450;-77
2021/09/03 09:26:15;;;;;;;6.00;4.63;;;20.90;99.90;;;;;;4987526;28;20205;-77
2021/09/03 09:28:43;;;;;;;4.70;4.00;;;21.00;99.90;;;;;;4998837;28;20855;-77
2021/09/03 09:31:13;;;;;;;6.80;5.30;;;21.00;99.90;;;;;;4998728;28;20450;-72
2021/09/03 09:33:46;;;;;;;5.40;4.33;;;21.20;99.90;;;;;;5005437;28;20568;-73
2021/09/03 09:36:16;;;;;;;4.40;4.00;;;21.30;99.90;;;;;;5006834;28;20496;-71
2021/09/03 09:38:46;;;;;;;4.67;3.90;;;21.30;99.90;;;;;;5006816;28;20485;-75
2021/09/03 09:41:20;;;;;;;7.73;5.17;;;21.30;99.90;;;;;;5009575;28;20474;-75
2021/09/03 09:43:48;;;;;;;5.97;5.07;;;21.20;99.90;;;;;;5010841;28;20960;-72
2021/09/03 09:46:22;;;;;;;5.00;4.50;;;21.20;99.90;;;;;;5011668;28;20878;-72
2021/09/03 09:48:57;;;;;;;7.03;4.57;;;21.20;99.90;;;;;;5010924;28;20866;-73
2021/09/03 09:51:27;;;;;;;6.30;4.90;;;21.30;99.90;;;;;;5010858;28;20478;-71
2021/09/03 09:53:56;;;;;;;5.50;4.60;;;21.30;99.90;;;;;;5009475;28;20453;-74
2021/09/03 09:56:26;;;;;;;5.17;4.60;;;21.30;99.90;;;;;;5011155;28;20534;-75
2021/09/03 09:58:56;;;;;;;5.47;4.70;;;21.30;99.90;;;;;;5010199;28;20540;-70
2021/09/03 10:01:24;;;;;;;4.77;4.37;;;21.30;99.90;;;;;;5009998;28;20535;-73
2021/09/03 10:03:54;;;;;;;5.00;4.50;;;21.40;99.90;;;;;;5010099;28;20453;-73
2021/09/03 10:06:25;;;;;;;4.57;4.10;;;21.40;99.90;;;;;;5010626;28;20441;-73
2021/09/03 10:08:56;;;;;;;4.67;3.90;;;21.40;99.90;;;;;;5010339;28;20537;-76
2021/09/03 10:11:25;;;;;;;4.90;4.03;;;21.50;99.90;;;;;;5010491;28;20489;-72
2021/09/03 10:13:54;;;;;;;6.40;4.80;;;21.50;99.90;;;;;;5011132;28;20451;-75
2021/09/03 10:16:23;;;;;;;4.57;3.50;;;21.50;99.90;;;;;;5008790;28;20554;-73
2021/09/03 10:18:56;;;;;;;5.60;4.70;;;21.60;99.90;;;;;;5010362;28;20530;-74
2021/09/03 10:21:26;;;;;;;4.00;3.70;;;21.70;99.90;;;;;;5008044;28;20495;-74
2021/09/03 10:24:03;;;;;;;4.70;4.13;;;21.70;99.90;;;;;;5011121;28;20464;-74
2021/09/03 10:26:34;;;;;;;5.27;4.40;;;21.80;99.90;;;;;;5010006;28;20586;-73
2021/09/03 10:29:17;;;;;;;5.00;4.27;;;21.80;99.90;;;;;;5010677;28;20449;-74
2021/09/03 10:32:24;;;;;;;5.30;4.90;;;21.90;99.90;;;;;;5010034;28;20464;-74
2021/09/03 10:34:55;;;;;;;4.93;4.43;;;21.90;99.90;;;;;;5007403;28;20449;-73
2021/09/03 10:37:33;;;;;;;6.03;4.50;;;21.90;99.90;;;;;;5008159;28;20452;-73
2021/09/03 10:40:12;;;;;;;4.83;3.63;;;21.90;99.90;;;;;;5009442;28;20531;-74
2021/09/03 10:42:56;;;;;;;5.03;4.53;;;21.80;99.90;;;;;;5010004;28;20482;-75
2021/09/03 10:45:35;;;;;;;5.10;4.50;;;22.00;99.90;;;;;;4990272;28;20827;-74
2021/09/03 10:48:13;;;;;;;4.80;4.30;;;22.10;99.90;;;;;;4991021;28;20460;-72
2021/09/03 10:50:47;;;;;;;4.73;4.33;;;22.10;99.90;;;;;;5003292;28;20882;-73
2021/09/03 10:53:30;;;;;;;4.47;3.83;;;22.10;99.90;;;;;;5010722;28;20460;-73
2021/09/03 10:56:17;;;;;;;6.07;4.67;;;22.20;99.90;;;;;;5009142;28;20961;-74
2021/09/03 10:59:06;;;;;;;6.33;5.30;;;22.20;99.90;;;;;;5010580;28;20469;-72
2021/09/03 11:01:51;;;;;;;5.23;4.73;;;22.30;99.90;;;;;;5003659;28;20472;-73
2021/09/03 11:04:23;;;;;;;7.20;5.90;;;22.40;99.90;;;;;;5005432;28;20453;-73
2021/09/03 11:07:12;;;;;;;8.00;5.20;;;22.30;99.90;;;;;;5009030;28;20453;-73
2021/09/03 11:09:46;;;;;;;5.37;4.87;;;22.30;99.90;;;;;;5009028;28;20472;-73
2021/09/03 11:12:21;;;;;;;5.30;4.80;;;22.40;99.90;;;;;;5009962;28;20463;-71
2021/09/03 11:14:55;;;;;;;5.07;3.70;;;22.40;99.90;;;;;;5008644;28;20471;-74
2021/09/03 11:17:26;;;;;;;4.60;4.20;;;22.40;99.90;;;;;;5009989;28;20507;-73
2021/09/03 11:19:55;;;;;;;4.93;4.43;;;22.50;99.90;;;;;;5008468;28;20472;-73
2021/09/03 11:22:24;;;;;;;4.90;4.40;;;22.60;99.90;;;;;;5005125;28;20480;-75
2021/09/03 11:24:53;;;;;;;4.63;3.50;;;22.60;99.90;;;;;;5008895;28;20457;-73
2021/09/03 11:27:26;;;;;;;4.93;4.30;;;22.80;99.90;;;;;;5010769;28;20454;-73
2021/09/03 11:29:57;;;;;;;5.27;4.07;;;22.70;99.90;;;;;;5007716;28;21024;-74
2021/09/03 11:32:27;;;;;;;4.40;3.70;;;22.80;99.90;;;;;;5010435;28;21108;-72
2021/09/03 11:34:58;;;;;;;5.70;4.63;;;22.70;99.90;;;;;;5008718;28;20864;-72
2021/09/03 11:37:38;;;;;;;5.10;4.60;;;22.70;99.90;;;;;;5010004;28;20540;-73
2021/09/03 11:40:17;;;;;;;5.20;4.10;;;22.70;99.90;;;;;;5006864;28;20494;-73
2021/09/03 11:42:48;;;;;;;3.93;3.53;;;22.80;99.90;;;;;;5010113;28;20957;-74
2021/09/03 11:45:19;;;;;;;6.70;5.23;;;22.90;99.90;;;;;;5008989;28;20449;-73
2021/09/03 11:47:51;;;;;;;4.80;4.33;;;22.90;99.90;;;;;;5009668;28;20446;-73
2021/09/03 11:50:26;;;;;;;4.73;4.33;;;22.90;99.90;;;;;;5002819;28;20462;-75
2021/09/03 11:52:56;;;;;;;6.00;4.47;;;23.00;99.90;;;;;;5003326;28;20463;-72
2021/09/03 11:55:24;;;;;;;4.37;3.80;;;22.90;99.90;;;;;;5006804;28;20457;-72
2021/09/03 11:58:00;;;;;;;7.20;4.63;;;22.90;99.90;;;;;;4994556;28;20520;-72
2021/09/03 12:00:32;;;;;;;6.70;5.20;;;22.90;99.90;;;;;;5005514;28;20480;-72
2021/09/03 12:03:03;;;;;;;5.20;4.70;;;22.90;99.90;;;;;;5008062;28;20449;-74
2021/09/03 12:05:32;;;;;;;5.72;4.60;;;22.90;99.90;;;;;;5006416;28;20465;-73
2021/09/03 12:08:05;;;;;;;6.73;5.30;;;23.00;99.90;;;;;;5004467;28;20278;-71
2021/09/03 12:10:35;;;;;;;6.47;4.40;;;23.00;99.90;;;;;;5006863;28;20856;-73
2021/09/03 12:13:14;;;;;;;4.80;4.40;;;23.10;99.90;;;;;;5006471;28;20456;-73
2021/09/03 12:15:43;;;;;;;5.10;4.40;;;23.20;99.90;;;;;;5004679;28;20445;-73
2021/09/03 12:18:23;;;;;;;4.63;4.23;;;23.20;99.90;;;;;;5006312;28;20450;-73
2021/09/03 12:20:54;;;;;;;5.53;3.80;;;23.20;99.90;;;;;;5004904;28;20554;-73
2021/09/03 12:23:22;;;;;;;6.00;4.10;;;23.30;99.90;;;;;;5003918;28;20949;-73
2021/09/03 12:25:51;;;;;;;5.00;4.40;;;23.30;99.90;;;;;;5005495;28;20978;-73
2021/09/03 12:28:20;;;;;;;4.40;4.00;;;23.40;99.90;;;;;;5003988;28;20868;-72
2021/09/03 12:30:52;;;;;;;4.27;3.70;;;23.50;99.90;;;;;;5001827;28;20504;-73
2021/09/03 12:33:27;;;;;;;4.70;4.30;;;23.50;99.90;;;;;;4999748;28;20461;-72
2021/09/03 12:35:57;;;;;;;4.57;4.17;;;23.50;99.90;;;;;;5005505;28;20463;-72
2021/09/03 12:38:40;;;;;;;4.13;3.83;;;23.50;99.90;;;;;;5004521;28;20515;-73
2021/09/03 12:41:20;;;;;;;4.90;3.83;;;23.60;99.90;;;;;;5005719;28;20519;-73
2021/09/03 12:43:54;;;;;;;3.83;3.53;;;23.60;99.90;;;;;;5004718;28;20461;-72
2021/09/03 12:46:22;;;;;;;3.97;3.67;;;23.70;99.90;;;;;;4995316;28;20454;-70
2021/09/03 12:49:04;;;;;;;3.47;3.20;;;23.70;99.90;;;;;;4988174;28;20450;-73
2021/09/03 12:51:34;;;;;;;3.47;3.17;;;23.70;99.90;;;;;;5006204;28;21017;-73
2021/09/03 12:54:04;;;;;;;5.77;4.27;;;23.70;99.90;;;;;;5007673;28;20442;-72
2021/09/03 12:56:33;;;;;;;5.50;4.00;;;23.80;99.90;;;;;;5006612;28;21024;-73
2021/09/03 12:59:02;;;;;;;4.10;3.80;;;23.80;99.90;;;;;;5007319;28;20951;-72
2021/09/03 13:01:32;;;;;;;4.43;4.07;;;23.80;99.90;;;;;;5007233;28;21012;-72
2021/09/03 13:04:00;;;;;;;3.70;3.40;;;23.90;99.90;;;;;;5005350;28;20449;-72